Time;durP1;ratioP1;P1;durP2;ratioP2;P2;SDS_P1;SDS_P2;PMS_P1;PMS_P2;Temp;Humidity;BMP_temperature;BMP_pressure;BME280_temperature;BME280_humidity;BME280_pressure;Samples;Min_cycle;Max_cycle;Signal;HPM_P1;HPM_P2
2021/09/14 00:01:35;;;;;;;6.07;3.50;;;;;;;18.20;46.81;101247.50;6153566;23;20161;-61
2021/09/14 00:04:01;;;;;;;9.23;3.90;;;;;;;18.44;47.01;101281.34;6153707;23;20235;-62
2021/09/14 00:06:26;;;;;;;7.20;4.17;;;;;;;18.33;47.22;101278.22;6153402;23;20683;-61
2021/09/14 00:08:52;;;;;;;8.37;3.87;;;;;;;18.31;46.64;101278.66;6153027;23;20224;-61
2021/09/14 00:11:17;;;;;;;5.73;3.50;;;;;;;17.98;46.63;101237.72;6153821;23;20153;-62
2021/09/14 00:13:43;;;;;;;8.70;4.27;;;;;;;18.18;46.76;101275.28;6153572;23;20165;-61
2021/09/14 00:16:08;;;;;;;17.63;5.33;;;;;;;18.22;47.22;101289.91;6153822;23;20172;-62
2021/09/14 00:18:33;;;;;;;18.83;5.13;;;;;;;18.19;47.23;101280.38;6152325;23;20154;-62
2021/09/14 00:20:59;;;;;;;16.37;5.07;;;;;;;17.90;47.45;101244.91;6153407;23;20568;-62
2021/09/14 00:23:24;;;;;;;21.77;5.77;;;;;;;17.82;47.67;101235.22;6153840;23;20163;-61
2021/09/14 00:25:50;;;;;;;22.67;4.90;;;;;;;18.05;47.31;101274.63;6153375;23;20553;-62
2021/09/14 00:28:15;;;;;;;17.77;4.93;;;;;;;17.96;47.38;101265.47;6153378;23;20208;-62
2021/09/14 00:30:41;;;;;;;14.07;5.03;;;;;;;17.99;47.52;101282.88;6151249;23;20198;-62
2021/09/14 00:33:07;;;;;;;12.33;4.37;;;;;;;17.81;47.66;101253.31;6153700;23;20157;-62
2021/09/14 00:35:32;;;;;;;20.23;5.23;;;;;;;17.98;47.72;101285.38;6153847;23;20222;-62
2021/09/14 00:37:57;;;;;;;12.53;4.50;;;;;;;17.77;47.04;101267.47;6153698;23;20164;-62
2021/09/14 00:40:23;;;;;;;13.20;5.03;;;;;;;17.58;47.60;101232.25;6152354;23;20504;-61
2021/09/14 00:42:48;;;;;;;17.43;4.93;;;;;;;17.95;47.76;101292.72;6153922;23;20154;-61
2021/09/14 00:45:14;;;;;;;13.83;4.60;;;;;;;17.92;48.28;101291.63;6153080;23;20161;-61
2021/09/14 00:47:39;;;;;;;16.00;4.50;;;;;;;17.89;48.55;101297.38;6153550;23;20162;-62
2021/09/14 00:50:06;;;;;;;12.23;4.90;;;;;;;17.77;48.42;101299.06;6152652;23;20157;-62
2021/09/14 00:52:35;;;;;;;13.33;4.77;;;;;;;17.77;48.83;101303.13;6152450;23;20156;-62
2021/09/14 00:55:20;;;;;;;8.93;4.30;;;;;;;17.73;48.08;101294.88;6153738;23;20194;-62
2021/09/14 00:57:45;;;;;;;9.23;4.00;;;;;;;17.64;48.51;101311.69;6153235;23;20164;-61
2021/09/14 01:00:11;;;;;;;9.57;4.30;;;;;;;17.21;48.80;101236.22;6152367;23;20154;-63
2021/09/14 01:02:37;;;;;;;13.80;4.73;;;;;;;17.57;49.06;101292.38;6126832;23;20189;-62
2021/09/14 01:05:03;;;;;;;13.53;4.93;;;;;;;17.37;48.95;101252.75;6153312;23;20155;-61
2021/09/14 01:07:29;;;;;;;12.90;4.50;;;;;;;17.67;48.82;101299.53;6153010;23;20512;-62
2021/09/14 01:09:55;;;;;;;19.37;5.63;;;;;;;17.68;49.22;101309.50;6152803;23;20157;-62
2021/09/14 01:12:22;;;;;;;15.77;4.70;;;;;;;17.66;49.18;101306.38;6152654;23;20159;-61
2021/09/14 01:14:52;;;;;;;10.80;5.13;;;;;;;17.24;49.43;101247.28;6153042;23;20248;-62
2021/09/14 01:17:18;;;;;;;21.30;5.53;;;;;;;17.65;49.23;101309.66;6153336;23;20503;-61
2021/09/14 01:19:43;;;;;;;12.50;5.53;;;;;;;17.57;49.14;101306.38;6151940;23;20154;-61
2021/09/14 01:22:10;;;;;;;15.60;5.20;;;;;;;17.46;49.37;101305.25;6153361;23;20150;-61
2021/09/14 01:24:35;;;;;;;14.47;5.20;;;;;;;17.50;49.42;101315.06;6150818;23;20158;-61
2021/09/14 01:27:01;;;;;;;12.07;5.43;;;;;;;17.41;49.32;101303.06;6152739;23;20228;-61
2021/09/14 01:32:11;;;;;;;11.97;4.43;;;;;;;17.34;49.81;101309.69;6152944;23;20213;-61
2021/09/14 01:34:37;;;;;;;27.73;6.30;;;;;;;16.95;49.85;101268.50;6152421;23;20150;-61
2021/09/14 01:37:03;;;;;;;22.33;5.90;;;;;;;17.04;50.45;101308.50;6153264;23;20156;-62
2021/09/14 01:39:28;;;;;;;11.57;5.17;;;;;;;17.03;50.22;101303.34;6152502;23;20559;-62
2021/09/14 01:41:54;;;;;;;16.23;5.53;;;;;;;16.69;50.69;101259.50;6152836;23;20150;-62
2021/09/14 01:44:19;;;;;;;12.87;4.77;;;;;;;17.01;50.73;101317.03;6152585;23;20154;-61
2021/09/14 01:46:45;;;;;;;15.50;5.20;;;;;;;17.00;50.83;101307.84;6152498;23;20186;-61
2021/09/14 01:49:11;;;;;;;11.17;4.47;;;;;;;16.86;50.77;101290.84;6152435;23;20589;-62
2021/09/14 01:51:36;;;;;;;9.90;4.60;;;;;;;16.98;50.78;101308.78;6152478;23;20160;-61
2021/09/14 01:54:02;;;;;;;11.43;4.13;;;;;;;16.98;51.00;101315.16;6151360;23;20159;-61
2021/09/14 01:56:27;;;;;;;12.83;4.90;;;;;;;16.73;50.74;101283.78;6152194;23;20177;-62
2021/09/14 01:58:53;;;;;;;16.00;4.90;;;;;;;16.91;50.96;101316.19;6152366;23;20167;-62
2021/09/14 02:01:31;;;;;;;11.17;4.17;;;;;;;16.93;50.89;101324.16;6152109;23;20284;-62
2021/09/14 02:38:18;;;;;;;18.23;5.60;;;;;;;16.50;52.15;101333.38;6152158;23;20160;-61
2021/09/14 02:58:44;;;;;;;11.33;4.27;;;;;;;16.29;52.84;101341.75;6151876;23;20619;-61
2021/09/14 03:01:12;;;;;;;11.37;4.60;;;;;;;16.28;52.87;101335.34;6151478;23;20199;-61
2021/09/14 03:03:41;;;;;;;6.50;4.47;;;;;;;16.25;52.86;101335.47;6152040;23;20607;-61
2021/09/14 03:06:07;;;;;;;9.90;4.57;;;;;;;16.02;52.84;101294.75;6152274;23;20228;-61
2021/09/14 03:08:35;;;;;;;10.50;4.23;;;;;;;16.17;53.22;101336.97;6151187;23;20156;-61
2021/09/14 03:11:09;;;;;;;7.57;4.27;;;;;;;16.12;52.93;101331.94;6151802;23;20188;-61
2021/09/14 03:13:36;;;;;;;10.17;4.90;;;;;;;16.06;53.48;101337.34;6151792;23;20224;-61
2021/09/14 03:16:03;;;;;;;10.20;4.70;;;;;;;15.81;52.35;101314.25;6152431;23;20153;-61
2021/09/14 03:18:28;;;;;;;11.53;4.43;;;;;;;16.00;52.23;101336.38;6151496;23;20239;-61
2021/09/14 03:20:54;;;;;;;8.57;4.07;;;;;;;16.09;51.82;101352.44;6151708;23;20152;-61
2021/09/14 03:23:19;;;;;;;10.13;4.20;;;;;;;16.07;51.97;101340.91;6151927;23;20615;-61
2021/09/14 03:25:44;;;;;;;7.40;4.50;;;;;;;16.08;52.21;101350.88;6152067;23;20647;-61
2021/09/14 03:28:11;;;;;;;9.63;4.47;;;;;;;16.07;51.98;101349.28;6151462;23;20226;-61
2021/09/14 03:30:37;;;;;;;7.80;4.20;;;;;;;16.04;51.45;101350.97;6150833;23;20192;-61
2021/09/14 03:33:03;;;;;;;7.07;4.30;;;;;;;15.99;51.97;101353.59;6151863;23;20605;-61
2021/09/14 03:35:29;;;;;;;10.43;4.33;;;;;;;16.02;51.34;101363.84;6151782;23;20146;-61
2021/09/14 03:37:54;;;;;;;11.83;4.07;;;;;;;15.99;51.85;101361.97;6152309;23;20211;-61
2021/09/14 03:40:47;;;;;;;10.17;4.33;;;;;;;16.03;51.83;101366.19;6150125;23;20153;-61
2021/09/14 03:43:13;;;;;;;7.57;4.40;;;;;;;15.68;52.21;101311.50;6151756;23;20146;-61
2021/09/14 03:45:44;;;;;;;8.57;4.17;;;;;;;15.90;51.82;101348.69;6125314;23;20186;-62
2021/09/14 03:48:09;;;;;;;10.87;4.20;;;;;;;16.06;51.40;101368.09;6126533;23;20157;-62
2021/09/14 03:50:36;;;;;;;8.43;3.93;;;;;;;15.87;51.42;101349.59;6124475;23;20239;-61
2021/09/14 03:53:01;;;;;;;8.67;3.63;;;;;;;15.57;51.57;101316.69;6125734;23;20168;-61
2021/09/14 03:55:27;;;;;;;7.80;3.97;;;;;;;16.02;52.08;101375.81;6151973;23;20626;-61
2021/09/14 03:57:52;;;;;;;10.87;3.73;;;;;;;16.03;51.72;101382.97;6152125;23;20153;-61
2021/09/14 04:00:18;;;;;;;6.60;4.00;;;;;;;15.96;51.92;101388.03;6125044;23;20169;-61
2021/09/14 04:02:50;;;;;;;7.23;3.90;;;;;;;15.96;51.85;101393.63;6150010;23;20156;-61
2021/09/14 04:10:07;;;;;;;8.80;3.97;;;;;;;15.85;52.18;101398.78;6151310;23;20160;-61
2021/09/14 04:12:33;;;;;;;6.33;4.07;;;;;;;15.75;52.33;101395.13;6151308;23;20161;-60
2021/09/14 04:14:58;;;;;;;6.23;3.80;;;;;;;15.83;52.39;101407.59;6152275;23;20500;-61
2021/09/14 04:17:24;;;;;;;7.00;4.10;;;;;;;15.86;52.48;101405.94;6151364;23;20714;-61
2021/09/14 04:19:50;;;;;;;7.20;3.80;;;;;;;15.86;52.19;101408.72;6151441;23;20154;-61
2021/09/14 04:22:15;;;;;;;17.40;4.80;;;;;;;15.82;52.26;101408.06;6151448;23;20215;-61
2021/09/14 04:24:41;;;;;;;7.10;3.93;;;;;;;15.90;52.50;101403.81;6149373;23;20675;-61
2021/09/14 04:27:08;;;;;;;6.03;3.87;;;;;;;15.79;52.50;101400.59;6151230;23;20212;-61
2021/09/14 04:29:33;;;;;;;8.47;4.30;;;;;;;15.75;52.74;101394.31;6150683;23;20149;-61
2021/09/14 04:31:59;;;;;;;8.03;4.07;;;;;;;16.00;52.36;101422.25;6151617;23;20613;-61
2021/09/14 04:34:24;;;;;;;8.87;4.47;;;;;;;16.07;52.68;101425.59;6150692;23;20202;-61
2021/09/14 04:36:50;;;;;;;5.70;4.20;;;;;;;15.82;53.14;101389.28;6151133;23;20607;-61
2021/09/14 04:39:15;;;;;;;4.33;2.93;;;;;;;16.15;59.28;101414.94;6150358;23;20162;-60
2021/09/14 04:41:41;;;;;;;4.97;2.70;;;;;;;18.40;54.99;101421.81;6151229;23;20157;-60
2021/09/14 04:44:06;;;;;;;6.67;3.60;;;;;;;18.91;50.50;101397.47;6151415;23;20152;-61
2021/09/14 04:46:32;;;;;;;7.10;3.50;;;;;;;19.77;47.61;101427.50;6146561;23;20188;-61
2021/09/14 04:48:57;;;;;;;10.90;4.00;;;;;;;20.29;45.80;101431.72;6144019;23;20165;-61
2021/09/14 04:51:23;;;;;;;12.80;5.17;;;;;;;20.49;44.86;101423.44;6144380;23;20617;-61
2021/09/14 04:53:48;;;;;;;14.40;5.10;;;;;;;20.44;44.10;101385.47;6135092;23;20176;-61
2021/09/14 04:56:14;;;;;;;10.87;4.93;;;;;;;20.82;42.25;101436.16;6144040;23;20502;-65
2021/09/14 04:58:41;;;;;;;8.57;4.57;;;;;;;20.55;41.80;101441.22;6143240;23;20161;-60
2021/09/14 05:01:07;;;;;;;8.77;4.50;;;;;;;20.05;41.62;101447.81;6145862;23;20232;-61
2021/09/14 05:03:32;;;;;;;17.27;4.50;;;;;;;19.86;42.91;101446.34;6142540;23;20180;-60
2021/09/14 05:05:58;;;;;;;6.43;3.90;;;;;;;19.26;42.85;101404.28;6134628;23;20556;-59
2021/09/14 05:08:23;;;;;;;27.43;6.90;;;;;;;19.30;43.83;101441.38;6127757;23;20148;-60
2021/09/14 05:10:50;;;;;;;17.70;5.10;;;;;;;18.92;44.90;101443.16;6141636;23;20160;-59
2021/09/14 05:13:16;;;;;;;9.17;4.50;;;;;;;18.78;45.14;101455.81;6117560;23;20220;-59
2021/09/14 05:15:41;;;;;;;7.10;3.70;;;;;;;18.38;45.23;101427.09;6145490;23;20189;-60
2021/09/14 05:18:11;;;;;;;8.43;4.10;;;;;;;18.10;46.00;101417.06;6142417;23;20157;-60
2021/09/14 05:20:39;;;;;;;12.60;3.93;;;;;;;18.18;46.38;101447.16;6147465;23;20151;-59
2021/09/14 05:23:50;;;;;;;9.10;4.20;;;;;;;18.14;46.55;101452.13;6142774;23;20324;-59
2021/09/14 05:25:50;;;;;;;14.87;4.43;;;;;;;17.86;47.22;101426.53;6129666;23;20214;-59
2021/09/14 05:28:16;;;;;;;8.87;4.80;;;;;;;18.02;47.35;101469.09;6146949;23;20197;-59
2021/09/14 05:30:44;;;;;;;11.20;4.13;;;;;;;17.82;47.90;101437.88;6143522;23;20156;-59
2021/09/14 05:33:10;;;;;;;10.83;4.37;;;;;;;17.93;48.14;101469.84;6141995;23;20154;-59
2021/09/14 05:35:43;;;;;;;8.10;4.30;;;;;;;17.88;48.35;101469.69;6137676;23;20203;-59
2021/09/14 05:38:09;;;;;;;9.30;4.70;;;;;;;17.80;48.47;101459.22;6143314;23;20144;-59
2021/09/14 05:40:35;;;;;;;13.87;4.40;;;;;;;17.83;48.95;101453.47;6146160;23;20159;-59
2021/09/14 05:43:04;;;;;;;8.07;4.53;;;;;;;18.14;48.57;101473.81;6138972;23;20153;-59
2021/09/14 05:45:32;;;;;;;9.07;4.20;;;;;;;18.21;48.56;101476.31;6141601;23;20161;-59
2021/09/14 05:47:59;;;;;;;10.63;4.47;;;;;;;18.21;47.71;101448.25;6136114;23;20157;-61
2021/09/14 05:50:25;;;;;;;12.57;4.60;;;;;;;18.36;48.24;101477.31;6144960;23;20207;-61
2021/09/14 05:52:51;;;;;;;9.20;4.80;;;;;;;18.44;49.31;101484.19;6144405;23;20164;-61
2021/09/14 05:55:17;;;;;;;9.67;4.13;;;;;;;18.54;48.51;101488.56;6139744;23;20253;-62
2021/09/14 05:57:42;;;;;;;15.87;5.43;;;;;;;18.40;48.57;101433.03;6143517;23;20153;-62
2021/09/14 06:00:09;;;;;;;11.87;4.63;;;;;;;19.04;48.27;101481.56;6142320;23;20557;-60
2021/09/14 06:02:34;;;;;;;11.00;4.37;;;;;;;19.02;48.91;101484.81;6145114;23;20803;-59
2021/09/14 06:05:00;;;;;;;37.50;6.20;;;;;;;19.25;48.54;101449.69;6138379;23;20167;-60
2021/09/14 06:07:26;;;;;;;22.50;5.40;;;;;;;19.57;48.21;101486.31;6138713;23;20182;-61
2021/09/14 06:09:51;;;;;;;15.60;4.67;;;;;;;19.82;47.06;101477.47;6139491;23;20568;-61
2021/09/14 06:12:17;;;;;;;10.40;4.60;;;;;;;19.89;45.70;101496.00;6140428;23;20162;-61
2021/09/14 06:14:42;;;;;;;10.60;4.57;;;;;;;19.83;46.05;101493.09;6142854;23;20160;-62
2021/09/14 06:17:08;;;;;;;17.97;5.40;;;;;;;20.25;46.46;101499.47;6145199;23;20152;-63
2021/09/14 06:19:33;;;;;;;10.10;4.47;;;;;;;19.88;45.34;101449.44;6139419;23;20563;-63
2021/09/14 06:22:01;;;;;;;8.83;4.20;;;;;;;20.08;46.37;101489.88;6144663;23;20216;-63
2021/09/14 06:24:26;;;;;;;41.90;7.90;;;;;;;20.10;46.40;101464.03;6142024;23;20161;-63
2021/09/14 06:26:52;;;;;;;13.03;5.53;;;;;;;20.45;46.27;101496.03;6140180;23;20215;-62
2021/09/14 06:29:17;;;;;;;14.07;4.50;;;;;;;20.59;46.41;101498.16;6143814;23;20141;-60
2021/09/14 06:31:43;;;;;;;9.87;4.97;;;;;;;20.79;45.27;101498.31;6144511;23;20482;-62
2021/09/14 06:34:08;;;;;;;7.60;4.63;;;;;;;20.76;44.23;101490.81;6140815;23;20691;-64
2021/09/14 06:36:34;;;;;;;7.27;4.43;;;;;;;20.70;44.42;101504.00;6143216;23;20150;-62
2021/09/14 06:38:59;;;;;;;10.23;5.20;;;;;;;20.66;44.56;101487.31;6142955;23;20161;-63
2021/09/14 06:41:25;;;;;;;11.73;4.97;;;;;;;20.79;44.37;101504.72;6137922;23;20169;-62
2021/09/14 06:43:51;;;;;;;11.87;5.00;;;;;;;20.85;44.46;101471.81;6139689;23;20224;-62
2021/09/14 06:46:17;;;;;;;8.03;5.50;;;;;;;21.16;44.38;101502.41;6141595;23;20213;-60
2021/09/14 06:48:42;;;;;;;9.77;5.53;;;;;;;21.17;43.87;101503.94;6141871;23;20157;-61
2021/09/14 06:51:07;;;;;;;8.60;5.10;;;;;;;21.01;44.17;101482.66;6140595;23;20600;-64
2021/09/14 06:53:33;;;;;;;12.30;5.97;;;;;;;21.25;43.98;101507.94;6134303;23;20186;-67
2021/09/14 06:55:58;;;;;;;11.47;5.53;;;;;;;21.00;44.28;101467.00;6141503;23;20177;-67
2021/09/14 06:58:24;;;;;;;12.40;5.50;;;;;;;21.43;44.22;101505.72;6127535;23;20161;-65
2021/09/14 07:00:49;;;;;;;11.10;6.07;;;;;;;20.76;43.84;101401.47;6121599;23;20263;-67
2021/09/14 07:03:15;;;;;;;9.73;5.60;;;;;;;21.61;44.29;101508.34;6131580;23;20201;-65
2021/09/14 07:05:40;;;;;;;16.63;5.90;;;;;;;21.47;43.92;101503.50;6140594;23;20185;-64
2021/09/14 07:08:06;;;;;;;13.30;5.70;;;;;;;21.68;44.52;101524.09;6140603;23;20165;-64
2021/09/14 07:10:32;;;;;;;10.73;5.80;;;;;;;21.83;44.61;101517.22;6139873;23;20208;-66
2021/09/14 07:12:58;;;;;;;11.40;5.97;;;;;;;21.89;43.78;101514.47;6110839;23;20240;-66
2021/09/14 07:15:23;;;;;;;10.50;5.20;;;;;;;21.75;44.01;101476.53;6131262;23;20180;-66
2021/09/14 07:17:49;;;;;;;9.33;5.50;;;;;;;21.98;43.42;101512.31;6143477;23;20425;-66
2021/09/14 07:20:15;;;;;;;8.80;5.67;;;;;;;21.97;43.77;101512.81;6143934;23;20158;-66
2021/09/14 07:22:40;;;;;;;8.77;5.90;;;;;;;21.69;43.94;101461.56;6143397;23;20284;-66
2021/09/14 07:25:07;;;;;;;10.83;5.83;;;;;;;22.07;44.07;101505.78;6139663;23;20609;-66
2021/09/14 07:27:33;;;;;;;12.00;5.97;;;;;;;22.16;44.24;101511.31;6140214;23;20772;-66
2021/09/14 07:29:58;;;;;;;8.73;5.50;;;;;;;22.35;43.95;101516.19;6139829;23;20161;-66
2021/09/14 07:32:24;;;;;;;9.10;5.77;;;;;;;22.09;43.38;101483.47;6139527;23;20307;-66
2021/09/14 07:34:49;;;;;;;8.47;5.77;;;;;;;22.30;43.07;101518.94;6138506;23;20153;-66
2021/09/14 07:37:15;;;;;;;9.63;5.93;;;;;;;22.29;42.72;101521.00;6133301;23;20154;-66
2021/09/14 07:39:41;;;;;;;14.27;6.13;;;;;;;22.14;43.20;101492.03;6139734;23;20599;-64
2021/09/14 07:42:06;;;;;;;11.13;5.73;;;;;;;22.28;43.25;101491.22;6144926;23;20478;-65
2021/09/14 07:44:32;;;;;;;9.30;6.00;;;;;;;22.57;43.48;101527.06;6135567;23;20228;-64
2021/09/14 07:46:57;;;;;;;12.73;5.80;;;;;;;22.62;43.31;101532.00;6140619;23;20185;-67
2021/09/14 07:49:23;;;;;;;11.00;6.27;;;;;;;22.60;42.46;101535.31;6144359;23;20429;-67
2021/09/14 07:51:48;;;;;;;9.23;5.87;;;;;;;22.70;42.75;101528.25;6142350;23;20154;-64
2021/09/14 07:54:14;;;;;;;9.00;5.97;;;;;;;22.82;42.65;101527.13;6138562;23;20835;-64
2021/09/14 07:56:39;;;;;;;86.77;11.80;;;;;;;22.80;42.62;101481.63;6138204;23;20150;-67
2021/09/14 07:59:05;;;;;;;67.57;11.83;;;;;;;23.22;42.04;101526.31;6144198;23;20691;-67
2021/09/14 08:01:30;;;;;;;18.63;6.37;;;;;;;23.19;42.26;101504.72;6142981;23;20154;-67
2021/09/14 08:03:56;;;;;;;8.27;5.20;;;;;;;23.24;42.00;101499.09;6139959;23;20154;-64
2021/09/14 08:06:21;;;;;;;10.40;6.30;;;;;;;23.21;41.83;101468.22;6133978;23;20185;-64
2021/09/14 08:08:47;;;;;;;9.37;5.97;;;;;;;23.25;42.26;101461.06;6138970;23;20421;-67
2021/09/14 08:11:12;;;;;;;10.93;5.70;;;;;;;23.59;41.24;101508.19;6142843;23;20182;-65
2021/09/14 08:13:38;;;;;;;10.00;6.13;;;;;;;23.61;41.15;101483.00;6139963;23;20164;-63
2021/09/14 08:16:05;;;;;;;8.70;5.80;;;;;;;23.68;41.11;101471.22;6145465;23;20173;-63
2021/09/14 08:18:30;;;;;;;9.27;6.27;;;;;;;23.78;40.90;101478.25;6149581;23;20158;-62
2021/09/14 08:20:56;;;;;;;15.50;6.43;;;;;;;24.03;40.30;101511.41;6148085;23;20615;-65
2021/09/14 08:23:21;;;;;;;11.37;6.30;;;;;;;24.18;40.02;101511.22;6147030;23;20716;-61
2021/09/14 08:25:47;;;;;;;11.10;5.67;;;;;;;24.23;40.28;101508.44;6147561;23;20229;-64
2021/09/14 08:28:12;;;;;;;12.03;6.20;;;;;;;24.13;38.19;101484.44;6140251;23;20193;-62
2021/09/14 08:30:38;;;;;;;11.40;6.33;;;;;;;24.25;38.86;101500.22;6143497;23;20154;-62
2021/09/14 08:33:04;;;;;;;12.67;6.30;;;;;;;24.18;38.83;101468.75;6147119;23;20149;-63
2021/09/14 08:35:30;;;;;;;14.53;6.57;;;;;;;24.57;38.45;101515.81;6153040;23;20153;-66
2021/09/14 08:37:56;;;;;;;14.40;6.47;;;;;;;24.28;39.31;101487.88;6151627;23;20158;-65
2021/09/14 08:40:21;;;;;;;13.20;6.20;;;;;;;24.51;39.18;101512.19;6153153;23;20150;-64
2021/09/14 08:42:47;;;;;;;8.63;5.60;;;;;;;24.32;39.33;101464.97;6153447;23;20149;-64
2021/09/14 08:45:13;;;;;;;10.13;5.93;;;;;;;24.74;38.58;101505.38;6149366;23;20185;-63
2021/09/14 08:47:39;;;;;;;11.93;6.23;;;;;;;24.86;37.84;101503.34;6145804;23;20174;-61
2021/09/14 08:50:09;;;;;;;12.07;5.97;;;;;;;24.95;37.29;101494.63;6145006;23;20150;-62
2021/09/14 08:52:35;;;;;;;11.77;6.33;;;;;;;24.97;37.39;101492.06;6143462;23;20217;-63
2021/09/14 08:55:00;;;;;;;11.50;6.10;;;;;;;25.07;37.63;101491.31;6147632;23;20233;-62
2021/09/14 08:57:26;;;;;;;10.30;6.50;;;;;;;25.08;37.61;101490.00;6143761;23;20272;-63
2021/09/14 08:59:55;;;;;;;8.37;5.97;;;;;;;25.16;36.92;101488.25;6146102;23;20166;-62
2021/09/14 09:02:21;;;;;;;12.37;6.77;;;;;;;25.20;35.66;101487.97;6147412;23;20158;-62
2021/09/14 09:05:02;;;;;;;10.53;6.13;;;;;;;25.32;35.56;101486.72;6145269;23;20187;-62
2021/09/14 09:07:36;;;;;;;14.20;5.63;;;;;;;25.41;35.86;101475.13;6145227;23;20189;-63
2021/09/14 09:10:12;;;;;;;9.30;5.67;;;;;;;25.57;35.26;101483.66;6146911;23;20157;-61
2021/09/14 09:12:48;;;;;;;10.77;5.77;;;;;;;25.74;35.61;101472.31;6146575;23;20160;-62
2021/09/14 09:15:33;;;;;;;12.30;5.87;;;;;;;25.94;35.84;101480.59;6146485;23;20138;-62
2021/09/14 09:18:00;;;;;;;10.97;5.97;;;;;;;25.94;36.64;101477.75;6147443;23;20220;-62
2021/09/14 09:20:26;;;;;;;8.37;5.47;;;;;;;26.22;36.00;101475.63;6145496;23;20232;-62
2021/09/14 09:22:59;;;;;;;10.63;6.00;;;;;;;26.33;35.23;101473.53;6146421;23;20288;-63
2021/09/14 09:25:25;;;;;;;8.60;5.43;;;;;;;26.06;35.35;101430.97;6146204;23;20157;-65
2021/09/14 09:28:03;;;;;;;9.93;5.43;;;;;;;26.46;34.75;101475.81;6146381;23;20568;-65
2021/09/14 09:30:33;;;;;;;10.90;5.90;;;;;;;26.30;34.98;101436.84;6144922;23;20647;-64
2021/09/14 09:33:03;;;;;;;10.17;6.10;;;;;;;26.83;34.68;101476.19;6145677;23;20340;-62
2021/09/14 09:35:33;;;;;;;9.73;5.97;;;;;;;27.02;33.95;101469.34;6145372;23;20660;-62
2021/09/14 09:37:59;;;;;;;11.97;6.27;;;;;;;26.97;33.95;101423.88;6119418;23;20200;-66
2021/09/14 09:40:41;;;;;;;10.37;5.70;;;;;;;27.27;33.05;101464.56;6139367;23;20149;-61
2021/09/14 09:43:09;;;;;;;8.63;5.87;;;;;;;27.28;33.37;101466.88;6146845;23;20503;-67
2021/09/14 09:45:45;;;;;;;9.70;5.97;;;;;;;27.49;33.14;101461.56;6143713;23;20157;-66
2021/09/14 09:48:12;;;;;;;8.48;5.45;;;;;;;27.61;32.75;101466.63;6147503;23;20296;-66
2021/09/14 09:50:39;;;;;;;10.35;5.88;;;;;;;27.61;32.48;101469.47;6152250;23;20241;-66
2021/09/14 09:53:06;;;;;;;8.38;5.45;;;;;;;27.73;32.11;101464.47;6148857;23;20169;-65
2021/09/14 09:55:33;;;;;;;11.73;6.20;;;;;;;27.81;32.42;101468.28;6148111;23;20492;-63
2021/09/14 09:58:17;;;;;;;13.40;5.83;;;;;;;28.01;32.28;101462.91;6146192;23;20544;-63
2021/09/14 10:00:57;;;;;;;14.30;5.93;;;;;;;28.19;32.52;101465.03;6147092;23;20549;-63
2021/09/14 10:03:27;;;;;;;10.63;5.80;;;;;;;28.42;31.40;101457.81;6148758;23;20160;-63
2021/09/14 10:05:57;;;;;;;8.57;6.07;;;;;;;28.01;31.43;101403.06;6147848;23;20260;-65
2021/09/14 10:08:25;;;;;;;10.13;6.33;;;;;;;28.34;31.65;101458.91;6146246;23;20153;-63
2021/09/14 10:10:58;;;;;;;9.70;5.97;;;;;;;28.22;30.74;101458.28;6148239;23;20232;-63
2021/09/14 10:13:36;;;;;;;9.90;6.60;;;;;;;28.09;31.53;101443.91;6142278;23;20237;-63
2021/09/14 10:16:02;;;;;;;11.50;6.90;;;;;;;28.10;32.11;101453.22;6130655;23;20673;-64
2021/09/14 10:18:33;;;;;;;9.53;6.47;;;;;;;28.21;31.89;101448.16;6138692;23;20188;-64
2021/09/14 10:20:59;;;;;;;10.73;6.70;;;;;;;28.40;30.96;101443.31;6121624;23;20260;-64
2021/09/14 10:23:38;;;;;;;12.93;7.30;;;;;;;28.21;31.10;101410.34;6123013;23;20157;-64
2021/09/14 10:26:12;;;;;;;10.77;6.77;;;;;;;28.55;31.99;101437.94;6137187;23;20185;-66
2021/09/14 10:28:49;;;;;;;10.47;6.70;;;;;;;28.70;31.41;101406.09;6136465;23;20579;-65
2021/09/14 10:31:20;;;;;;;11.77;7.00;;;;;;;29.14;30.89;101431.94;6139656;23;20545;-66
2021/09/14 10:33:45;;;;;;;11.30;7.43;;;;;;;29.10;30.36;101422.91;6145238;23;20162;-66
2021/09/14 10:36:14;;;;;;;11.18;6.90;;;;;;;29.33;29.65;101438.38;6144658;23;20244;-66
2021/09/14 10:38:49;;;;;;;9.32;7.25;;;;;;;29.29;29.59;101437.94;6144978;23;20193;-64
2021/09/14 10:41:15;;;;;;;12.63;7.50;;;;;;;29.07;29.61;101434.66;6145001;23;20221;-63
2021/09/14 10:43:52;;;;;;;12.23;7.15;;;;;;;28.86;30.18;101405.09;6144654;23;20174;-62
2021/09/14 10:46:24;;;;;;;10.65;7.57;;;;;;;29.30;28.82;101422.34;6113022;23;20493;-63
2021/09/14 10:48:52;;;;;;;11.98;7.05;;;;;;;29.53;29.19;101425.59;6143455;23;20499;-66
2021/09/14 10:51:19;;;;;;;12.30;7.38;;;;;;;29.62;29.19;101428.81;6138461;23;20157;-64
2021/09/14 10:53:59;;;;;;;8.93;6.68;;;;;;;29.72;28.91;101424.22;6142305;23;20156;-64
2021/09/14 10:56:28;;;;;;;8.50;6.68;;;;;;;29.83;29.34;101426.88;6139130;23;20615;-64
2021/09/14 10:58:55;;;;;;;9.43;6.43;;;;;;;29.86;28.13;101407.88;6136142;23;20577;-62
2021/09/14 11:01:27;;;;;;;9.68;6.35;;;;;;;29.93;28.28;101427.22;6143044;23;20150;-63
2021/09/14 11:04:05;;;;;;;16.05;6.97;;;;;;;29.81;27.88;101394.47;6142603;23;20138;-60
2021/09/14 11:06:31;;;;;;;14.38;6.70;;;;;;;29.89;28.21;101384.69;6142401;23;20252;-62
2021/09/14 11:09:02;;;;;;;9.40;6.68;;;;;;;30.26;27.98;101407.38;6107191;23;20577;-60
2021/09/14 11:11:28;;;;;;;11.30;6.75;;;;;;;30.38;27.20;101407.88;6144860;23;20241;-63
2021/09/14 11:13:54;;;;;;;9.57;6.80;;;;;;;30.45;27.19;101404.38;6143634;23;20253;-63
2021/09/14 11:16:21;;;;;;;14.48;6.88;;;;;;;30.51;27.24;101396.44;6140649;23;20613;-65
2021/09/14 11:18:47;;;;;;;15.32;7.40;;;;;;;30.52;27.46;101397.97;6117167;23;20168;-65
2021/09/14 11:21:18;;;;;;;15.52;7.00;;;;;;;30.63;27.70;101398.50;6142036;23;20189;-63
2021/09/14 11:23:46;;;;;;;17.90;7.28;;;;;;;30.67;27.36;101390.38;6140882;23;20166;-64
2021/09/14 11:26:15;;;;;;;12.10;6.80;;;;;;;30.65;27.69;101384.41;6143480;23;20181;-63
2021/09/14 11:28:41;;;;;;;14.57;6.78;;;;;;;30.65;27.10;101377.91;6139630;23;20154;-63
2021/09/14 11:31:13;;;;;;;11.77;6.72;;;;;;;30.44;27.12;101377.84;6140650;23;20158;-64
2021/09/14 11:33:43;;;;;;;10.88;6.28;;;;;;;30.48;26.84;101384.00;6142269;23;20863;-62
2021/09/14 11:36:09;;;;;;;12.43;6.70;;;;;;;30.44;27.27;101377.84;6143585;23;20159;-61
2021/09/14 11:38:35;;;;;;;8.60;6.53;;;;;;;30.36;26.68;101374.13;6135859;23;20161;-61
2021/09/14 11:41:02;;;;;;;8.20;6.57;;;;;;;30.54;27.77;101373.22;6139958;23;20150;-61
2021/09/14 11:43:30;;;;;;;10.20;6.30;;;;;;;30.50;26.70;101343.41;6145259;23;20176;-66
2021/09/14 11:45:57;;;;;;;12.32;6.30;;;;;;;30.84;26.26;101365.00;6142488;23;20185;-61
2021/09/14 11:48:28;;;;;;;10.18;6.13;;;;;;;31.00;26.04;101366.69;6136965;23;20154;-61
2021/09/14 11:51:05;;;;;;;13.38;6.15;;;;;;;31.12;26.25;101361.47;6143964;23;20240;-62
2021/09/14 11:53:32;;;;;;;10.23;6.22;;;;;;;31.12;25.29;101365.06;6141172;23;20668;-63
2021/09/14 11:55:57;;;;;;;10.80;5.97;;;;;;;31.11;25.19;101360.69;6147746;23;20166;-64
2021/09/14 11:58:29;;;;;;;12.00;5.93;;;;;;;31.23;25.56;101349.75;6144264;23;20156;-66
2021/09/14 12:00:57;;;;;;;12.57;6.55;;;;;;;31.29;25.42;101347.50;6141435;23;20161;-64
2021/09/14 12:03:34;;;;;;;8.05;6.20;;;;;;;31.45;25.64;101349.16;6142921;23;20161;-62
2021/09/14 12:06:00;;;;;;;12.52;6.43;;;;;;;31.59;25.51;101342.78;6143606;23;20212;-62
2021/09/14 12:08:30;;;;;;;8.57;6.25;;;;;;;31.79;25.20;101344.09;6144948;23;20573;-62
2021/09/14 12:10:56;;;;;;;9.02;5.93;;;;;;;32.00;24.94;101345.59;6145839;23;20204;-61
2021/09/14 12:13:23;;;;;;;11.55;6.15;;;;;;;32.09;24.19;101332.81;6134535;23;20456;-60
2021/09/14 12:15:49;;;;;;;13.38;6.00;;;;;;;32.25;24.28;101340.16;6118548;23;20508;-63
2021/09/14 12:18:17;;;;;;;11.25;5.95;;;;;;;32.44;24.97;101332.78;6145338;23;20161;-60
2021/09/14 12:20:44;;;;;;;8.95;5.38;;;;;;;32.63;24.14;101326.72;6145836;23;20229;-60